createdAt,value
2019-02-23T00:00:36.448Z,6.58
2019-02-23T00:03:05.624Z,6.08
2019-02-23T00:05:34.434Z,6.58
2019-02-23T00:08:10.109Z,6.22
2019-02-23T00:10:38.889Z,6.97
2019-02-23T00:13:07.752Z,6.55
2019-02-23T00:15:43.491Z,6.97
2019-02-23T00:18:19.416Z,7.15
2019-02-23T00:20:55.105Z,6.20
2019-02-23T00:23:23.808Z,6.37
2019-02-23T00:25:52.621Z,6.10
2019-02-23T00:28:27.984Z,6.50
2019-02-23T00:30:56.762Z,6.65
2019-02-23T00:33:25.459Z,6.53
2019-02-23T00:36:08.113Z,6.53
2019-02-23T00:38:36.833Z,6.30
2019-02-23T00:41:05.568Z,6.40
2019-02-23T00:43:40.966Z,6.40
2019-02-23T00:46:09.836Z,6.22
2019-02-23T00:48:38.723Z,5.97
2019-02-23T00:51:14.255Z,6.53
2019-02-23T00:53:42.968Z,6.03
2019-02-23T00:56:11.746Z,6.20
2019-02-23T00:58:48.047Z,6.33
2019-02-23T01:01:16.791Z,6.08
2019-02-23T01:03:45.625Z,6.35
2019-02-23T01:06:20.739Z,6.45
2019-02-23T01:08:49.506Z,6.00
2019-02-23T01:11:18.307Z,6.20
2019-02-23T01:13:54.019Z,6.40
2019-02-23T01:16:29.505Z,6.25
2019-02-23T01:19:10.628Z,6.05
2019-02-23T01:21:39.995Z,6.10
2019-02-23T01:24:08.858Z,6.22
2019-02-23T01:26:44.230Z,6.08
2019-02-23T01:29:12.933Z,5.70
2019-02-23T01:31:41.676Z,6.55
2019-02-23T01:34:17.136Z,5.90
2019-02-23T01:36:52.091Z,6.75
2019-02-23T01:39:27.867Z,6.37
2019-02-23T01:41:56.698Z,6.53
2019-02-23T01:44:25.479Z,6.30
2019-02-23T01:47:01.476Z,6.60
2019-02-23T01:49:30.739Z,6.08
2019-02-23T01:51:59.488Z,6.50
2019-02-23T01:54:34.710Z,6.60
2019-02-23T01:57:03.987Z,6.95
2019-02-23T01:59:32.753Z,6.80
2019-02-23T02:02:07.985Z,6.53
2019-02-23T02:04:36.981Z,7.08
2019-02-23T02:07:05.913Z,6.87
2019-02-23T02:09:40.864Z,6.50
2019-02-23T02:12:10.641Z,7.20
2019-02-23T02:14:39.572Z,6.60
2019-02-23T02:17:14.502Z,6.30
2019-02-23T02:19:50.009Z,6.80
2019-02-23T02:22:25.913Z,6.90
2019-02-23T02:24:55.299Z,6.87
2019-02-23T02:27:24.069Z,6.78
2019-02-23T02:29:59.700Z,7.33
2019-02-23T02:32:28.508Z,7.22
2019-02-23T02:34:57.416Z,6.95
2019-02-23T02:37:32.596Z,6.75
2019-02-23T02:40:08.947Z,7.10
2019-02-23T02:42:44.478Z,7.20
2019-02-23T02:45:13.249Z,7.50
2019-02-23T02:47:42.019Z,7.55
2019-02-23T02:50:24.404Z,6.78
2019-02-23T02:52:48.451Z,6.80
2019-02-23T02:55:17.287Z,6.70
2019-02-23T02:57:53.866Z,7.08
2019-02-23T03:00:22.683Z,6.62
2019-02-23T03:02:51.443Z,7.47
2019-02-23T03:05:26.907Z,7.13
2019-02-23T03:07:55.732Z,7.50
2019-02-23T03:10:24.529Z,7.42
2019-02-23T03:13:00.453Z,7.30
2019-02-23T03:15:29.245Z,7.72
2019-02-23T03:18:11.547Z,6.85
2019-02-23T03:20:47.241Z,7.37
2019-02-23T03:23:22.964Z,7.42
2019-02-23T03:25:51.880Z,7.35
2019-02-23T03:28:20.654Z,7.33
2019-02-23T03:30:56.008Z,6.80
2019-02-23T03:33:24.912Z,7.35
2019-02-23T03:35:53.784Z,7.47
2019-02-23T03:38:28.919Z,7.40
2019-02-23T03:41:04.772Z,7.05
2019-02-23T03:43:40.013Z,7.22
2019-02-23T03:46:08.888Z,7.73
2019-02-23T03:48:37.709Z,6.83
2019-02-23T03:51:13.557Z,7.45
2019-02-23T03:53:42.545Z,7.80
2019-02-23T03:56:11.410Z,7.78
2019-02-23T03:58:47.148Z,7.63
2019-02-23T04:01:15.982Z,7.85
2019-02-23T04:03:44.828Z,8.10
2019-02-23T04:06:20.119Z,7.60
2019-02-23T04:08:48.989Z,7.53
2019-02-23T04:11:17.867Z,7.65
2019-02-23T04:13:52.980Z,7.95
2019-02-23T04:16:21.890Z,8.05
2019-02-23T04:19:04.313Z,7.62
2019-02-23T04:21:39.338Z,7.37
2019-02-23T04:24:14.870Z,8.13
2019-02-23T04:26:43.639Z,7.97
2019-02-23T04:29:12.523Z,7.92
2019-02-23T04:31:50.402Z,7.85
2019-02-23T04:34:19.434Z,8.33
2019-02-23T04:36:48.303Z,7.70
2019-02-23T04:39:24.280Z,7.72
2019-02-23T04:42:00.088Z,7.97
2019-02-23T04:44:35.451Z,8.13
2019-02-23T04:47:04.268Z,7.90
2019-02-23T04:49:33.203Z,8.10
2019-02-23T04:52:08.508Z,8.25
2019-02-23T04:54:39.454Z,8.48
2019-02-23T04:57:08.297Z,8.10
2019-02-23T04:59:44.051Z,8.13
2019-02-23T05:02:12.953Z,8.20
2019-02-23T05:04:41.812Z,8.23
2019-02-23T05:07:17.213Z,8.30
2019-02-23T05:09:46.002Z,7.70
2019-02-23T05:12:14.908Z,8.03
2019-02-23T05:14:49.970Z,8.08
2019-02-23T05:17:18.937Z,8.20
2019-02-23T05:20:01.147Z,9.00
2019-02-23T05:22:36.667Z,8.43
2019-02-23T05:25:12.052Z,8.63
2019-02-23T05:27:40.840Z,8.70
2019-02-23T05:30:10.267Z,9.03
2019-02-23T05:32:46.066Z,8.53
2019-02-23T05:35:14.937Z,8.40
2019-02-23T05:37:44.882Z,8.75
2019-02-23T05:40:20.681Z,8.73
2019-02-23T05:43:01.029Z,9.23
2019-02-23T05:45:33.856Z,9.30
2019-02-23T05:48:02.670Z,9.63
2019-02-23T05:50:32.927Z,9.50
2019-02-23T05:53:08.264Z,8.50
2019-02-23T05:55:37.129Z,9.03
2019-02-23T05:58:05.915Z,9.10
2019-02-23T06:00:41.757Z,9.05
2019-02-23T06:03:10.586Z,9.35
2019-02-23T06:05:39.327Z,9.38
2019-02-23T06:08:14.832Z,9.03
2019-02-23T06:10:44.682Z,8.88
2019-02-23T06:13:13.828Z,9.45
2019-02-23T06:15:49.436Z,9.15
2019-02-23T06:18:24.834Z,9.23
2019-02-23T06:21:06.633Z,8.83
2019-02-23T06:23:49.600Z,8.73
2019-02-23T06:26:30.859Z,9.05
2019-02-23T06:28:59.838Z,8.73
2019-02-23T06:31:28.727Z,8.80
2019-02-23T06:34:15.505Z,9.15
2019-02-23T06:36:35.040Z,9.65
2019-02-23T06:39:04.691Z,9.70
2019-02-23T06:41:41.899Z,9.83
2019-02-23T06:44:17.143Z,9.40
2019-02-23T06:46:52.532Z,9.73
2019-02-23T06:49:21.294Z,9.90
2019-02-23T06:51:50.084Z,10.10
2019-02-23T06:54:25.264Z,9.60
2019-02-23T06:56:54.216Z,9.95
2019-02-23T06:59:23.028Z,9.68
2019-02-23T07:01:59.776Z,10.03
2019-02-23T07:04:28.650Z,9.23
2019-02-23T07:06:57.502Z,9.85
2019-02-23T07:09:32.501Z,9.43
2019-02-23T07:12:01.304Z,9.90
2019-02-23T07:14:30.212Z,9.43
2019-02-23T07:17:05.830Z,10.05
2019-02-23T07:19:41.240Z,9.98
2019-02-23T07:22:23.738Z,10.68
2019-02-23T07:24:53.016Z,10.15
2019-02-23T07:27:21.897Z,10.00
2019-02-23T07:29:57.586Z,10.13
2019-02-23T07:32:26.416Z,10.80
2019-02-23T07:34:55.223Z,10.90
2019-02-23T07:37:30.712Z,10.55
2019-02-23T07:39:59.529Z,11.28
2019-02-23T07:42:30.785Z,10.95
2019-02-23T07:45:13.091Z,10.68
2019-02-23T07:47:43.182Z,10.40
2019-02-23T07:50:12.388Z,10.68
2019-02-23T07:52:47.892Z,11.00
2019-02-23T07:55:17.789Z,10.58
2019-02-23T07:57:46.677Z,10.58
2019-02-23T08:00:22.437Z,11.03
2019-02-23T08:02:51.210Z,10.60
2019-02-23T08:05:19.940Z,9.93
2019-02-23T08:07:57.585Z,10.98
2019-02-23T08:10:26.449Z,10.00
2019-02-23T08:12:55.251Z,10.05
2019-02-23T08:15:30.517Z,9.30
2019-02-23T08:17:59.231Z,9.57
2019-02-23T08:20:40.934Z,9.50
2019-02-23T08:23:16.596Z,9.13
2019-02-23T08:25:51.987Z,8.53
2019-02-23T08:28:20.800Z,8.55
2019-02-23T08:30:49.741Z,8.90
2019-02-23T08:33:25.424Z,8.60
2019-02-23T08:35:54.142Z,8.40
2019-02-23T08:38:22.987Z,8.43
2019-02-23T08:41:01.783Z,8.30
2019-02-23T08:43:30.579Z,8.00
2019-02-23T08:46:13.456Z,8.23
2019-02-23T08:48:42.243Z,8.00
2019-02-23T08:51:11.959Z,8.13
2019-02-23T08:53:47.702Z,7.83
2019-02-23T08:56:16.532Z,7.25
2019-02-23T08:58:45.279Z,7.22
2019-02-23T09:01:20.849Z,7.65
2019-02-23T09:03:49.839Z,7.03
2019-02-23T09:06:18.707Z,7.20
2019-02-23T09:08:54.385Z,7.37
2019-02-23T09:11:23.156Z,7.53
2019-02-23T09:13:52.234Z,7.40
2019-02-23T09:16:27.618Z,7.37
2019-02-23T09:18:56.349Z,7.17
2019-02-23T09:21:38.703Z,7.25
2019-02-23T09:24:14.165Z,6.40
2019-02-23T09:26:49.818Z,6.60
2019-02-23T09:29:18.574Z,6.15
2019-02-23T09:31:47.364Z,7.05
2019-02-23T09:34:23.181Z,6.47
2019-02-23T09:36:51.913Z,6.28
2019-02-23T09:39:20.672Z,6.80
2019-02-23T09:41:55.739Z,7.03
2019-02-23T09:44:31.212Z,5.95
2019-02-23T09:47:13.957Z,6.20
2019-02-23T09:49:42.671Z,6.03
2019-02-23T09:52:11.429Z,5.85
2019-02-23T09:54:48.778Z,6.03
2019-02-23T09:57:17.542Z,5.83
2019-02-23T09:59:46.307Z,5.10
2019-02-23T10:02:21.578Z,5.53
2019-02-23T10:04:50.345Z,4.83
2019-02-23T10:07:19.139Z,4.62
2019-02-23T10:09:54.503Z,4.53
2019-02-23T10:12:23.389Z,4.67
2019-02-23T10:14:52.162Z,4.30
2019-02-23T10:17:27.928Z,4.55
2019-02-23T10:19:56.680Z,4.13
2019-02-23T10:22:39.823Z,3.80
2019-02-23T10:25:15.616Z,4.30
2019-02-23T10:27:51.079Z,4.12
2019-02-23T10:30:19.861Z,4.05
2019-02-23T10:32:48.692Z,3.90
2019-02-23T10:35:23.709Z,3.55
2019-02-23T10:37:52.499Z,4.40
2019-02-23T10:40:21.319Z,3.70
2019-02-23T10:42:57.321Z,4.05
2019-02-23T10:45:26.209Z,4.28
2019-02-23T10:48:08.376Z,3.47
2019-02-23T10:50:37.181Z,3.42
2019-02-23T10:53:06.299Z,3.30
2019-02-23T10:55:42.184Z,3.55
2019-02-23T10:58:12.575Z,3.52
2019-02-23T11:00:41.527Z,3.25
2019-02-23T11:03:17.146Z,3.40
2019-02-23T11:05:45.945Z,3.10
2019-02-23T11:08:14.770Z,3.15
2019-02-23T11:10:50.125Z,3.02
2019-02-23T11:13:21.773Z,3.10
2019-02-23T11:15:50.571Z,3.00
2019-02-23T11:18:26.433Z,3.22
2019-02-23T11:21:01.836Z,2.70
2019-02-23T11:23:44.495Z,2.85
2019-02-23T11:26:13.381Z,2.30
2019-02-23T11:28:42.142Z,2.60
2019-02-23T11:31:17.550Z,2.70
2019-02-23T11:33:46.348Z,2.72
2019-02-23T11:36:15.770Z,2.90
2019-02-23T11:38:50.652Z,2.70
2019-02-23T11:41:19.393Z,2.30
2019-02-23T11:43:48.134Z,2.60
2019-02-23T11:46:23.332Z,2.80
2019-02-23T11:49:02.689Z,2.70
2019-02-23T11:51:37.633Z,2.70
2019-02-23T11:54:06.489Z,2.50
2019-02-23T11:56:35.240Z,2.73
2019-02-23T11:59:10.344Z,2.67
2019-02-23T12:01:39.116Z,2.75
2019-02-23T12:04:07.849Z,2.47
2019-02-23T12:06:43.170Z,2.80
2019-02-23T12:09:11.915Z,2.47
2019-02-23T12:11:40.645Z,2.58
2019-02-23T12:14:15.603Z,2.67
2019-02-23T12:16:44.452Z,2.73
2019-02-23T12:19:13.171Z,2.72
2019-02-23T12:21:48.961Z,2.33
2019-02-23T12:24:24.833Z,2.40
2019-02-23T12:27:00.735Z,2.67
2019-02-23T12:29:29.504Z,2.72
2019-02-23T12:31:58.250Z,2.45
2019-02-23T12:34:33.436Z,2.58
2019-02-23T12:37:02.183Z,2.60
2019-02-23T12:39:30.998Z,2.67
2019-02-23T12:42:06.888Z,2.40
2019-02-23T12:44:35.649Z,2.20
2019-02-23T12:47:04.428Z,2.20
2019-02-23T12:49:40.141Z,2.15
2019-02-23T12:52:16.082Z,2.10
2019-02-23T12:54:51.481Z,2.37
2019-02-23T12:57:20.364Z,2.33
2019-02-23T12:59:49.169Z,2.20
2019-02-23T13:02:24.340Z,2.22
2019-02-23T13:04:53.268Z,2.10
2019-02-23T13:07:22.084Z,2.20
2019-02-23T13:10:00.384Z,2.00
2019-02-23T13:13:09.913Z,2.00
2019-02-23T13:15:55.987Z,1.90
2019-02-23T13:19:05.140Z,1.92
2019-02-23T13:22:24.218Z,1.82
2019-02-23T13:25:30.117Z,2.33
2019-02-23T13:29:02.058Z,2.33
2019-02-23T13:32:03.175Z,2.10
2019-02-23T13:35:40.607Z,2.15
2019-02-23T13:38:35.429Z,2.10
2019-02-23T13:41:50.288Z,2.12
2019-02-23T13:45:05.692Z,2.08
2019-02-23T13:48:17.969Z,2.33
2019-02-23T13:51:34.358Z,2.17
2019-02-23T13:54:43.188Z,2.40
2019-02-23T13:57:34.063Z,2.45
2019-02-23T14:00:42.197Z,2.65
2019-02-23T14:03:36.663Z,2.17
2019-02-23T14:06:53.743Z,2.65
2019-02-23T14:09:48.662Z,2.40
2019-02-23T14:12:34.742Z,2.40
2019-02-23T14:15:47.221Z,2.52
2019-02-23T14:18:54.459Z,2.62
2019-02-23T14:22:04.778Z,2.70
2019-02-23T14:25:39.466Z,2.70
2019-02-23T14:28:29.168Z,2.55
2019-02-23T14:31:49.408Z,2.70
2019-02-23T14:34:53.743Z,2.58
2019-02-23T14:37:42.269Z,2.87
2019-02-23T14:40:23.042Z,3.33
2019-02-23T14:43:28.547Z,2.87
2019-02-23T14:46:40.529Z,3.10
2019-02-23T14:49:51.835Z,2.83
2019-02-23T14:52:57.163Z,2.72
2019-02-23T14:56:16.010Z,3.10
2019-02-23T14:59:21.225Z,3.45
2019-02-23T15:02:08.791Z,3.33
2019-02-23T15:05:14.079Z,3.27
2019-02-23T15:07:58.120Z,3.17
2019-02-23T15:10:52.851Z,3.30
2019-02-23T15:14:07.983Z,3.40
2019-02-23T15:17:24.682Z,3.40
2019-02-23T15:20:43.325Z,3.30
2019-02-23T15:23:47.560Z,3.45
2019-02-23T15:26:58.479Z,3.15
2019-02-23T15:29:38.888Z,3.43
2019-02-23T15:32:53.997Z,3.52
2019-02-23T15:35:46.490Z,3.75
2019-02-23T15:38:55.054Z,3.83
2019-02-23T15:42:14.198Z,3.72
2019-02-23T15:45:49.062Z,3.83
2019-02-23T15:48:39.453Z,4.10
2019-02-23T15:51:15.186Z,4.37
2019-02-23T15:53:44.088Z,4.10
2019-02-23T15:56:26.425Z,4.35
2019-02-23T15:58:55.197Z,4.28
2019-02-23T16:01:24.343Z,4.05
2019-02-23T16:04:01.573Z,4.12
2019-02-23T16:06:31.613Z,4.50
2019-02-23T16:09:00.861Z,4.67
2019-02-23T16:11:36.792Z,4.67
2019-02-23T16:14:05.594Z,4.90
2019-02-23T16:16:34.347Z,5.40
2019-02-23T16:19:10.096Z,5.08
2019-02-23T16:21:38.849Z,4.97
2019-02-23T16:24:20.190Z,5.15
2019-02-23T16:26:55.711Z,5.07
2019-02-23T16:29:33.292Z,5.30
2019-02-23T16:32:02.198Z,5.80
2019-02-23T16:34:30.970Z,5.40
2019-02-23T16:37:06.696Z,5.53
2019-02-23T16:39:40.499Z,5.53
2019-02-23T16:42:08.771Z,5.40
2019-02-23T16:44:44.638Z,4.97
2019-02-23T16:47:13.369Z,4.97
2019-02-23T16:49:43.382Z,5.00
2019-02-23T16:52:20.128Z,5.10
2019-02-23T16:54:49.073Z,5.50
2019-02-23T16:57:32.069Z,5.22
2019-02-23T17:00:02.267Z,6.00
2019-02-23T17:02:31.111Z,6.10
2019-02-23T17:05:07.242Z,5.50
2019-02-23T17:07:36.887Z,5.85
2019-02-23T17:10:05.978Z,5.85
2019-02-23T17:12:41.894Z,5.60
2019-02-23T17:15:10.947Z,6.60
2019-02-23T17:17:39.749Z,6.40
2019-02-23T17:20:15.175Z,6.67
2019-02-23T17:22:44.026Z,6.15
2019-02-23T17:25:26.331Z,6.17
2019-02-23T17:28:01.291Z,6.85
2019-02-23T17:30:36.724Z,7.35
2019-02-23T17:33:05.540Z,6.53
2019-02-23T17:35:34.364Z,6.72
2019-02-23T17:38:16.145Z,7.12
2019-02-23T17:40:40.561Z,7.67
2019-02-23T17:43:09.418Z,7.70
2019-02-23T17:45:45.088Z,7.15
2019-02-23T17:48:13.877Z,7.87
2019-02-23T17:50:42.732Z,7.75
2019-02-23T17:53:20.102Z,8.18
2019-02-23T17:55:48.983Z,8.65
2019-02-23T17:58:31.816Z,8.93
2019-02-23T18:01:00.631Z,8.18
2019-02-23T18:03:29.415Z,8.75
2019-02-23T18:06:05.043Z,8.97
2019-02-23T18:08:34.178Z,9.23
2019-02-23T18:11:02.949Z,9.68
2019-02-23T18:13:40.176Z,8.68
2019-02-23T18:16:08.913Z,8.80
2019-02-23T18:18:37.689Z,8.65
2019-02-23T18:21:12.912Z,8.50
2019-02-23T18:23:41.662Z,8.98
2019-02-23T18:26:23.337Z,8.60
2019-02-23T18:28:59.129Z,8.63
2019-02-23T18:31:35.522Z,8.63
2019-02-23T18:34:04.336Z,8.55
2019-02-23T18:36:34.917Z,8.90
2019-02-23T18:39:11.163Z,8.70
2019-02-23T18:41:39.911Z,8.13
2019-02-23T18:44:08.664Z,8.58
2019-02-23T18:46:43.952Z,7.97
2019-02-23T18:49:12.797Z,8.48
2019-02-23T18:51:41.813Z,8.10
2019-02-23T18:54:18.236Z,8.20
2019-02-23T18:56:47.037Z,8.03
2019-02-23T18:59:28.597Z,8.05
2019-02-23T19:01:57.368Z,8.50
2019-02-23T19:04:26.244Z,8.25
2019-02-23T19:07:01.500Z,8.20
2019-02-23T19:09:39.373Z,8.53
2019-02-23T19:12:14.365Z,8.65
2019-02-23T19:14:43.145Z,8.70
2019-02-23T19:17:11.924Z,8.70
2019-02-23T19:19:47.216Z,8.65
2019-02-23T19:22:16.037Z,8.60
2019-02-23T19:24:44.806Z,9.00
2019-02-23T19:27:19.767Z,8.83
2019-02-23T19:29:54.968Z,8.05
2019-02-23T19:32:30.047Z,8.10
2019-02-23T19:34:58.796Z,8.80
2019-02-23T19:37:27.546Z,8.10
2019-02-23T19:40:02.827Z,8.00
2019-02-23T19:42:31.617Z,8.13
2019-02-23T19:45:00.595Z,8.75
2019-02-23T19:47:39.046Z,7.85
2019-02-23T19:50:14.181Z,7.87
2019-02-23T19:52:50.216Z,7.80
2019-02-23T19:55:19.028Z,8.33
2019-02-23T19:57:47.811Z,7.78
2019-02-23T20:00:29.539Z,8.15
2019-02-23T20:02:58.385Z,8.88
2019-02-23T20:05:27.117Z,8.80
2019-02-23T20:08:02.335Z,9.33
2019-02-23T20:10:31.093Z,9.70
2019-02-23T20:12:59.851Z,9.73
2019-02-23T20:15:35.432Z,9.95
2019-02-23T20:18:05.814Z,9.80
2019-02-23T20:20:34.603Z,9.93
2019-02-23T20:23:09.822Z,9.73
2019-02-23T20:25:45.066Z,9.63
2019-02-23T20:28:27.347Z,9.93
2019-02-23T20:30:56.087Z,9.25
2019-02-23T20:33:24.869Z,10.17
2019-02-23T20:35:59.900Z,9.97
2019-02-23T20:38:28.635Z,10.13
2019-02-23T20:40:57.539Z,10.08
2019-02-23T20:43:33.514Z,10.35
2019-02-23T20:46:02.331Z,10.10
2019-02-23T20:48:31.173Z,9.35
2019-02-23T20:51:06.819Z,9.50
2019-02-23T20:53:35.642Z,9.28
2019-02-23T20:56:04.542Z,10.43
2019-02-23T20:58:40.467Z,10.73
2019-02-23T21:01:16.236Z,10.25
2019-02-23T21:03:52.036Z,9.98
2019-02-23T21:06:22.150Z,10.72
2019-02-23T21:08:51.119Z,10.38
2019-02-23T21:11:26.861Z,10.45
2019-02-23T21:13:55.716Z,11.65
2019-02-23T21:16:51.598Z,12.07
2019-02-23T21:19:26.553Z,12.80
2019-02-23T21:22:01.646Z,14.25
2019-02-23T21:24:30.421Z,14.43
2019-02-23T21:26:59.250Z,13.45
2019-02-23T21:29:34.428Z,14.00
2019-02-23T21:32:03.222Z,13.50
2019-02-23T21:34:34.179Z,13.32
2019-02-23T21:37:09.970Z,12.82
2019-02-23T21:39:40.431Z,13.35
2019-02-23T21:42:09.464Z,13.53
2019-02-23T21:44:44.587Z,12.85
2019-02-23T21:47:13.363Z,12.67
2019-02-23T21:49:42.233Z,12.47
2019-02-23T21:52:17.175Z,13.25
2019-02-23T21:54:45.941Z,12.05
2019-02-23T21:57:21.991Z,12.63
2019-02-23T21:59:51.801Z,13.70
2019-02-23T22:02:27.581Z,14.75
2019-02-23T22:05:11.666Z,13.80
2019-02-23T22:07:33.070Z,13.62
2019-02-23T22:10:01.936Z,13.38
2019-02-23T22:12:37.927Z,13.50
2019-02-23T22:15:07.021Z,13.25
2019-02-23T22:17:49.003Z,13.10
2019-02-23T22:20:24.662Z,13.43
2019-02-23T22:23:00.601Z,13.72
2019-02-23T22:25:29.450Z,13.95
2019-02-23T22:27:58.289Z,13.58
2019-02-23T22:30:33.573Z,13.58
2019-02-23T22:33:02.470Z,14.00
2019-02-23T22:35:31.354Z,14.00
2019-02-23T22:38:07.404Z,13.93
2019-02-23T22:40:36.209Z,14.45
2019-02-23T22:43:05.053Z,13.43
2019-02-23T22:45:40.074Z,14.23
2019-02-23T22:48:08.922Z,14.10
2019-02-23T22:50:37.952Z,14.73
2019-02-23T22:53:12.958Z,13.72
2019-02-23T22:55:41.756Z,13.90
2019-02-23T22:58:10.694Z,14.20
2019-02-23T23:01:01.494Z,13.90
2019-02-23T23:03:37.251Z,14.65
2019-02-23T23:06:12.723Z,14.95
2019-02-23T23:08:41.497Z,15.53
2019-02-23T23:11:10.288Z,16.80
2019-02-23T23:13:46.158Z,15.58
2019-02-23T23:16:14.912Z,16.23
2019-02-23T23:18:56.361Z,15.90
2019-02-23T23:21:31.933Z,16.20
2019-02-23T23:24:07.665Z,16.30
2019-02-23T23:26:36.425Z,15.60
2019-02-23T23:29:05.157Z,15.05
2019-02-23T23:31:40.816Z,15.95
2019-02-23T23:34:09.621Z,17.23
2019-02-23T23:36:38.475Z,17.32
2019-02-23T23:39:13.866Z,16.90
2019-02-23T23:41:42.653Z,16.55
2019-02-23T23:44:11.449Z,15.78
2019-02-23T23:46:46.894Z,17.82
2019-02-23T23:49:15.632Z,17.65
2019-02-23T23:51:44.479Z,16.10
2019-02-23T23:54:19.900Z,15.68
2019-02-23T23:56:48.762Z,15.55
2019-02-23T23:59:17.543Z,14.85
